sensor_id;sensor_type;location;lat;lon;timestamp;P1;durP1;ratioP1;P2;durP2;ratioP2
18592;SDS011;9426;54.118;17.948;2022-08-19T00:01:54;12.10;;;9.77;;
18592;SDS011;9426;54.118;17.948;2022-08-19T00:07:19;11.27;;;9.73;;
18592;SDS011;9426;54.118;17.948;2022-08-19T00:12:44;12.07;;;9.70;;
18592;SDS011;9426;54.118;17.948;2022-08-19T00:18:08;9.23;;;8.30;;
18592;SDS011;9426;54.118;17.948;2022-08-19T00:23:31;11.17;;;8.67;;
18592;SDS011;9426;54.118;17.948;2022-08-19T00:28:57;16.47;;;11.73;;
18592;SDS011;9426;54.118;17.948;2022-08-19T00:34:21;14.37;;;11.33;;
18592;SDS011;9426;54.118;17.948;2022-08-19T00:39:45;11.67;;;10.00;;
18592;SDS011;9426;54.118;17.948;2022-08-19T00:45:13;12.97;;;9.87;;
18592;SDS011;9426;54.118;17.948;2022-08-19T00:50:39;15.03;;;11.73;;
18592;SDS011;9426;54.118;17.948;2022-08-19T00:56:05;13.67;;;11.30;;
18592;SDS011;9426;54.118;17.948;2022-08-19T01:01:31;13.97;;;10.80;;
18592;SDS011;9426;54.118;17.948;2022-08-19T01:06:55;18.23;;;13.53;;
18592;SDS011;9426;54.118;17.948;2022-08-19T01:12:20;17.57;;;13.53;;
18592;SDS011;9426;54.118;17.948;2022-08-19T01:17:45;16.30;;;12.97;;
18592;SDS011;9426;54.118;17.948;2022-08-19T01:23:13;14.03;;;11.73;;
18592;SDS011;9426;54.118;17.948;2022-08-19T01:28:36;14.13;;;11.10;;
18592;SDS011;9426;54.118;17.948;2022-08-19T01:34:00;16.47;;;11.80;;
18592;SDS011;9426;54.118;17.948;2022-08-19T01:39:26;15.60;;;12.77;;
18592;SDS011;9426;54.118;17.948;2022-08-19T01:44:49;13.47;;;11.47;;
18592;SDS011;9426;54.118;17.948;2022-08-19T01:50:12;13.57;;;11.70;;
18592;SDS011;9426;54.118;17.948;2022-08-19T01:55:39;13.67;;;11.50;;
18592;SDS011;9426;54.118;17.948;2022-08-19T02:01:04;16.43;;;13.00;;
18592;SDS011;9426;54.118;17.948;2022-08-19T02:06:28;15.63;;;12.47;;
18592;SDS011;9426;54.118;17.948;2022-08-19T02:11:53;13.13;;;11.53;;
18592;SDS011;9426;54.118;17.948;2022-08-19T02:17:17;16.77;;;13.27;;
18592;SDS011;9426;54.118;17.948;2022-08-19T02:22:40;19.47;;;13.87;;
18592;SDS011;9426;54.118;17.948;2022-08-19T02:28:06;18.50;;;14.93;;
18592;SDS011;9426;54.118;17.948;2022-08-19T02:33:29;14.30;;;12.80;;
18592;SDS011;9426;54.118;17.948;2022-08-19T02:38:52;15.47;;;12.10;;
18592;SDS011;9426;54.118;17.948;2022-08-19T02:44:17;14.07;;;12.30;;
18592;SDS011;9426;54.118;17.948;2022-08-19T02:49:40;15.70;;;12.87;;
18592;SDS011;9426;54.118;17.948;2022-08-19T02:55:04;13.27;;;11.43;;
18592;SDS011;9426;54.118;17.948;2022-08-19T03:00:30;13.40;;;10.93;;
18592;SDS011;9426;54.118;17.948;2022-08-19T03:06:02;13.83;;;11.80;;
18592;SDS011;9426;54.118;17.948;2022-08-19T03:11:31;13.43;;;11.70;;
18592;SDS011;9426;54.118;17.948;2022-08-19T03:16:57;13.30;;;11.57;;
18592;SDS011;9426;54.118;17.948;2022-08-19T03:22:20;12.97;;;11.07;;
18592;SDS011;9426;54.118;17.948;2022-08-19T03:27:44;13.23;;;11.33;;
18592;SDS011;9426;54.118;17.948;2022-08-19T03:33:11;15.00;;;12.40;;
18592;SDS011;9426;54.118;17.948;2022-08-19T03:38:35;13.97;;;11.50;;
18592;SDS011;9426;54.118;17.948;2022-08-19T03:44:00;12.13;;;10.83;;
18592;SDS011;9426;54.118;17.948;2022-08-19T03:49:25;13.93;;;11.33;;
18592;SDS011;9426;54.118;17.948;2022-08-19T03:54:50;12.97;;;11.43;;
18592;SDS011;9426;54.118;17.948;2022-08-19T04:00:14;11.10;;;9.97;;
18592;SDS011;9426;54.118;17.948;2022-08-19T04:05:40;12.37;;;10.30;;
18592;SDS011;9426;54.118;17.948;2022-08-19T04:11:06;14.00;;;10.80;;
18592;SDS011;9426;54.118;17.948;2022-08-19T04:16:30;13.43;;;9.87;;
18592;SDS011;9426;54.118;17.948;2022-08-19T04:21:55;10.60;;;9.43;;
18592;SDS011;9426;54.118;17.948;2022-08-19T04:27:19;11.07;;;9.63;;
18592;SDS011;9426;54.118;17.948;2022-08-19T04:32:42;13.17;;;10.17;;
18592;SDS011;9426;54.118;17.948;2022-08-19T04:38:07;14.70;;;11.30;;
18592;SDS011;9426;54.118;17.948;2022-08-19T04:43:31;10.83;;;9.67;;
18592;SDS011;9426;54.118;17.948;2022-08-19T04:48:55;13.43;;;10.93;;
18592;SDS011;9426;54.118;17.948;2022-08-19T04:54:21;11.50;;;10.30;;
18592;SDS011;9426;54.118;17.948;2022-08-19T04:59:46;13.93;;;11.47;;
18592;SDS011;9426;54.118;17.948;2022-08-19T05:05:09;13.73;;;11.67;;
18592;SDS011;9426;54.118;17.948;2022-08-19T05:10:35;14.83;;;12.27;;
18592;SDS011;9426;54.118;17.948;2022-08-19T05:15:59;18.77;;;12.80;;
18592;SDS011;9426;54.118;17.948;2022-08-19T05:21:22;14.90;;;12.33;;
18592;SDS011;9426;54.118;17.948;2022-08-19T05:27:05;18.50;;;13.20;;
18592;SDS011;9426;54.118;17.948;2022-08-19T05:32:28;16.03;;;13.20;;
18592;SDS011;9426;54.118;17.948;2022-08-19T05:37:52;14.80;;;12.30;;
18592;SDS011;9426;54.118;17.948;2022-08-19T05:43:17;14.67;;;12.63;;
18592;SDS011;9426;54.118;17.948;2022-08-19T05:48:40;11.87;;;10.67;;
18592;SDS011;9426;54.118;17.948;2022-08-19T05:54:04;13.90;;;11.18;;
18592;SDS011;9426;54.118;17.948;2022-08-19T05:59:31;12.52;;;10.85;;
18592;SDS011;9426;54.118;17.948;2022-08-19T06:04:54;12.48;;;10.30;;
18592;SDS011;9426;54.118;17.948;2022-08-19T06:10:18;13.65;;;11.38;;
18592;SDS011;9426;54.118;17.948;2022-08-19T06:15:44;13.00;;;10.63;;
18592;SDS011;9426;54.118;17.948;2022-08-19T06:21:07;14.85;;;11.95;;
18592;SDS011;9426;54.118;17.948;2022-08-19T06:26:30;13.30;;;11.05;;
18592;SDS011;9426;54.118;17.948;2022-08-19T06:31:56;12.73;;;10.88;;
18592;SDS011;9426;54.118;17.948;2022-08-19T06:37:21;13.35;;;9.93;;
18592;SDS011;9426;54.118;17.948;2022-08-19T06:42:44;15.48;;;10.10;;
18592;SDS011;9426;54.118;17.948;2022-08-19T06:48:09;15.90;;;11.18;;
18592;SDS011;9426;54.118;17.948;2022-08-19T06:53:33;15.20;;;10.20;;
18592;SDS011;9426;54.118;17.948;2022-08-19T06:58:56;14.70;;;10.05;;
18592;SDS011;9426;54.118;17.948;2022-08-19T07:04:22;15.80;;;10.85;;
18592;SDS011;9426;54.118;17.948;2022-08-19T07:09:48;16.48;;;10.30;;
18592;SDS011;9426;54.118;17.948;2022-08-19T07:15:14;18.23;;;10.25;;
18592;SDS011;9426;54.118;17.948;2022-08-19T07:20:39;13.43;;;9.50;;
18592;SDS011;9426;54.118;17.948;2022-08-19T07:26:04;16.95;;;10.63;;
18592;SDS011;9426;54.118;17.948;2022-08-19T07:31:28;14.95;;;10.05;;
18592;SDS011;9426;54.118;17.948;2022-08-19T07:36:53;15.60;;;9.70;;
18592;SDS011;9426;54.118;17.948;2022-08-19T07:42:17;11.50;;;8.80;;
18592;SDS011;9426;54.118;17.948;2022-08-19T07:47:42;13.07;;;8.55;;
18592;SDS011;9426;54.118;17.948;2022-08-19T07:53:07;12.50;;;8.15;;
18592;SDS011;9426;54.118;17.948;2022-08-19T07:58:31;14.68;;;8.25;;
18592;SDS011;9426;54.118;17.948;2022-08-19T08:03:56;13.40;;;7.85;;
18592;SDS011;9426;54.118;17.948;2022-08-19T08:09:40;11.13;;;7.90;;
18592;SDS011;9426;54.118;17.948;2022-08-19T08:15:07;13.02;;;7.95;;
18592;SDS011;9426;54.118;17.948;2022-08-19T08:20:32;11.45;;;7.85;;
18592;SDS011;9426;54.118;17.948;2022-08-19T08:25:58;11.55;;;6.80;;
18592;SDS011;9426;54.118;17.948;2022-08-19T08:31:23;12.57;;;7.55;;
18592;SDS011;9426;54.118;17.948;2022-08-19T08:36:47;12.52;;;7.05;;
18592;SDS011;9426;54.118;17.948;2022-08-19T08:42:15;14.68;;;6.80;;
18592;SDS011;9426;54.118;17.948;2022-08-19T08:47:44;16.67;;;7.03;;
18592;SDS011;9426;54.118;17.948;2022-08-19T08:53:11;11.43;;;6.72;;
18592;SDS011;9426;54.118;17.948;2022-08-19T08:58:45;9.77;;;6.10;;
18592;SDS011;9426;54.118;17.948;2022-08-19T09:04:15;12.18;;;6.50;;
18592;SDS011;9426;54.118;17.948;2022-08-19T09:09:40;11.45;;;6.50;;
18592;SDS011;9426;54.118;17.948;2022-08-19T09:15:08;8.98;;;5.63;;
18592;SDS011;9426;54.118;17.948;2022-08-19T09:20:35;10.77;;;5.82;;
18592;SDS011;9426;54.118;17.948;2022-08-19T09:25:59;9.50;;;6.25;;
18592;SDS011;9426;54.118;17.948;2022-08-19T09:31:26;15.57;;;5.75;;
18592;SDS011;9426;54.118;17.948;2022-08-19T09:36:50;14.18;;;5.53;;
18592;SDS011;9426;54.118;17.948;2022-08-19T09:42:16;12.63;;;6.38;;
18592;SDS011;9426;54.118;17.948;2022-08-19T09:47:41;7.60;;;5.72;;
18592;SDS011;9426;54.118;17.948;2022-08-19T09:53:05;8.13;;;5.50;;
18592;SDS011;9426;54.118;17.948;2022-08-19T09:58:28;9.05;;;5.75;;
18592;SDS011;9426;54.118;17.948;2022-08-19T10:03:53;12.45;;;5.70;;
18592;SDS011;9426;54.118;17.948;2022-08-19T10:09:17;9.38;;;5.97;;
18592;SDS011;9426;54.118;17.948;2022-08-19T10:14:40;7.70;;;5.20;;
18592;SDS011;9426;54.118;17.948;2022-08-19T10:20:05;9.27;;;5.63;;
18592;SDS011;9426;54.118;17.948;2022-08-19T10:25:29;8.30;;;5.30;;
18592;SDS011;9426;54.118;17.948;2022-08-19T10:30:52;8.73;;;5.25;;
18592;SDS011;9426;54.118;17.948;2022-08-19T10:36:18;14.18;;;5.22;;
18592;SDS011;9426;54.118;17.948;2022-08-19T10:41:43;8.15;;;5.30;;
18592;SDS011;9426;54.118;17.948;2022-08-19T10:47:06;7.70;;;5.00;;
18592;SDS011;9426;54.118;17.948;2022-08-19T10:52:30;8.35;;;4.97;;
18592;SDS011;9426;54.118;17.948;2022-08-19T10:57:56;10.70;;;5.22;;
18592;SDS011;9426;54.118;17.948;2022-08-19T11:03:22;8.07;;;5.00;;
18592;SDS011;9426;54.118;17.948;2022-08-19T11:08:46;9.15;;;5.28;;
18592;SDS011;9426;54.118;17.948;2022-08-19T11:14:11;9.00;;;5.07;;
18592;SDS011;9426;54.118;17.948;2022-08-19T11:19:35;8.52;;;5.13;;
18592;SDS011;9426;54.118;17.948;2022-08-19T11:24:59;10.73;;;4.68;;
18592;SDS011;9426;54.118;17.948;2022-08-19T11:30:23;22.63;;;6.13;;
18592;SDS011;9426;54.118;17.948;2022-08-19T11:35:49;9.73;;;5.28;;
18592;SDS011;9426;54.118;17.948;2022-08-19T11:41:14;9.10;;;5.00;;
18592;SDS011;9426;54.118;17.948;2022-08-19T11:46:39;8.57;;;5.35;;
18592;SDS011;9426;54.118;17.948;2022-08-19T11:52:07;8.90;;;5.60;;
18592;SDS011;9426;54.118;17.948;2022-08-19T11:57:31;7.95;;;5.03;;
18592;SDS011;9426;54.118;17.948;2022-08-19T12:02:54;9.93;;;5.25;;
18592;SDS011;9426;54.118;17.948;2022-08-19T12:08:18;14.20;;;4.95;;
18592;SDS011;9426;54.118;17.948;2022-08-19T12:13:42;10.27;;;5.63;;
18592;SDS011;9426;54.118;17.948;2022-08-19T12:19:06;9.77;;;5.50;;
18592;SDS011;9426;54.118;17.948;2022-08-19T12:24:30;10.55;;;4.95;;
18592;SDS011;9426;54.118;17.948;2022-08-19T12:29:55;13.18;;;4.85;;
18592;SDS011;9426;54.118;17.948;2022-08-19T12:35:19;8.15;;;4.40;;
18592;SDS011;9426;54.118;17.948;2022-08-19T12:40:45;10.18;;;4.68;;
18592;SDS011;9426;54.118;17.948;2022-08-19T12:46:11;11.10;;;4.32;;
18592;SDS011;9426;54.118;17.948;2022-08-19T12:51:35;5.97;;;3.80;;
18592;SDS011;9426;54.118;17.948;2022-08-19T12:56:58;12.38;;;4.85;;
18592;SDS011;9426;54.118;17.948;2022-08-19T13:02:27;8.52;;;4.00;;
18592;SDS011;9426;54.118;17.948;2022-08-19T13:07:53;12.77;;;4.57;;
18592;SDS011;9426;54.118;17.948;2022-08-19T13:13:18;9.18;;;4.65;;
18592;SDS011;9426;54.118;17.948;2022-08-19T13:18:42;13.75;;;4.88;;
18592;SDS011;9426;54.118;17.948;2022-08-19T13:24:08;10.15;;;4.60;;
18592;SDS011;9426;54.118;17.948;2022-08-19T13:29:31;10.15;;;4.85;;
18592;SDS011;9426;54.118;17.948;2022-08-19T13:35:12;11.18;;;5.22;;
18592;SDS011;9426;54.118;17.948;2022-08-19T13:40:36;6.80;;;4.68;;
18592;SDS011;9426;54.118;17.948;2022-08-19T13:46:08;7.13;;;4.93;;
18592;SDS011;9426;54.118;17.948;2022-08-19T13:51:36;9.70;;;4.82;;
18592;SDS011;9426;54.118;17.948;2022-08-19T13:57:00;10.07;;;5.22;;
18592;SDS011;9426;54.118;17.948;2022-08-19T14:02:23;8.25;;;5.05;;
18592;SDS011;9426;54.118;17.948;2022-08-19T14:07:48;9.95;;;5.10;;
18592;SDS011;9426;54.118;17.948;2022-08-19T14:13:13;15.63;;;5.53;;
18592;SDS011;9426;54.118;17.948;2022-08-19T14:18:38;17.70;;;5.07;;
18592;SDS011;9426;54.118;17.948;2022-08-19T14:24:03;10.20;;;5.45;;
18592;SDS011;9426;54.118;17.948;2022-08-19T14:29:26;14.30;;;5.70;;
18592;SDS011;9426;54.118;17.948;2022-08-19T14:34:50;14.50;;;7.03;;
18592;SDS011;9426;54.118;17.948;2022-08-19T14:40:15;11.38;;;6.00;;
18592;SDS011;9426;54.118;17.948;2022-08-19T14:45:41;11.50;;;6.35;;
18592;SDS011;9426;54.118;17.948;2022-08-19T14:51:04;21.13;;;6.50;;
18592;SDS011;9426;54.118;17.948;2022-08-19T14:56:29;13.48;;;5.90;;
18592;SDS011;9426;54.118;17.948;2022-08-19T15:01:52;12.45;;;5.80;;
18592;SDS011;9426;54.118;17.948;2022-08-19T15:07:15;12.38;;;5.32;;
18592;SDS011;9426;54.118;17.948;2022-08-19T15:12:39;10.73;;;6.00;;
18592;SDS011;9426;54.118;17.948;2022-08-19T15:18:03;14.07;;;6.63;;
18592;SDS011;9426;54.118;17.948;2022-08-19T15:23:26;8.70;;;5.57;;
18592;SDS011;9426;54.118;17.948;2022-08-19T15:28:51;10.55;;;5.68;;
18592;SDS011;9426;54.118;17.948;2022-08-19T15:34:14;9.13;;;5.65;;
18592;SDS011;9426;54.118;17.948;2022-08-19T15:39:37;9.27;;;5.88;;
18592;SDS011;9426;54.118;17.948;2022-08-19T15:45:02;17.45;;;6.38;;
18592;SDS011;9426;54.118;17.948;2022-08-19T15:50:25;10.43;;;6.18;;
18592;SDS011;9426;54.118;17.948;2022-08-19T15:55:48;13.73;;;6.20;;
18592;SDS011;9426;54.118;17.948;2022-08-19T16:01:12;9.73;;;5.38;;
18592;SDS011;9426;54.118;17.948;2022-08-19T16:07:07;10.52;;;5.35;;
18592;SDS011;9426;54.118;17.948;2022-08-19T16:12:32;11.50;;;5.75;;
18592;SDS011;9426;54.118;17.948;2022-08-19T16:17:56;13.48;;;5.63;;
18592;SDS011;9426;54.118;17.948;2022-08-19T16:23:23;14.98;;;6.30;;
18592;SDS011;9426;54.118;17.948;2022-08-19T16:28:46;17.40;;;6.07;;
18592;SDS011;9426;54.118;17.948;2022-08-19T16:34:11;17.95;;;5.90;;
18592;SDS011;9426;54.118;17.948;2022-08-19T16:39:35;8.18;;;5.18;;
18592;SDS011;9426;54.118;17.948;2022-08-19T16:44:58;11.65;;;5.70;;
18592;SDS011;9426;54.118;17.948;2022-08-19T16:50:23;8.52;;;5.20;;
18592;SDS011;9426;54.118;17.948;2022-08-19T16:55:59;8.90;;;5.88;;
18592;SDS011;9426;54.118;17.948;2022-08-19T17:01:21;12.55;;;5.25;;
18592;SDS011;9426;54.118;17.948;2022-08-19T17:06:45;10.75;;;5.25;;
18592;SDS011;9426;54.118;17.948;2022-08-19T17:12:08;14.43;;;6.38;;
18592;SDS011;9426;54.118;17.948;2022-08-19T17:17:32;11.25;;;5.38;;
18592;SDS011;9426;54.118;17.948;2022-08-19T17:22:58;14.43;;;6.53;;
18592;SDS011;9426;54.118;17.948;2022-08-19T17:28:23;14.93;;;8.00;;
18592;SDS011;9426;54.118;17.948;2022-08-19T17:33:47;68.82;;;47.47;;
18592;SDS011;9426;54.118;17.948;2022-08-19T17:39:12;36.83;;;27.00;;
18592;SDS011;9426;54.118;17.948;2022-08-19T17:44:35;24.25;;;13.73;;
18592;SDS011;9426;54.118;17.948;2022-08-19T17:49:58;17.77;;;12.27;;
18592;SDS011;9426;54.118;17.948;2022-08-19T17:55:23;18.17;;;8.18;;
18592;SDS011;9426;54.118;17.948;2022-08-19T18:00:46;14.98;;;7.40;;
18592;SDS011;9426;54.118;17.948;2022-08-19T18:06:09;11.38;;;7.65;;
18592;SDS011;9426;54.118;17.948;2022-08-19T18:11:36;11.95;;;7.93;;
18592;SDS011;9426;54.118;17.948;2022-08-19T18:16:59;15.90;;;7.47;;
18592;SDS011;9426;54.118;17.948;2022-08-19T18:22:26;10.07;;;7.20;;
18592;SDS011;9426;54.118;17.948;2022-08-19T18:27:53;12.77;;;7.20;;
18592;SDS011;9426;54.118;17.948;2022-08-19T18:33:18;10.25;;;7.53;;
18592;SDS011;9426;54.118;17.948;2022-08-19T18:38:41;12.63;;;7.72;;
18592;SDS011;9426;54.118;17.948;2022-08-19T18:44:25;17.70;;;8.98;;
18592;SDS011;9426;54.118;17.948;2022-08-19T18:50:05;14.60;;;8.73;;
18592;SDS011;9426;54.118;17.948;2022-08-19T18:55:33;11.27;;;7.05;;
18592;SDS011;9426;54.118;17.948;2022-08-19T19:01:00;10.60;;;7.13;;
18592;SDS011;9426;54.118;17.948;2022-08-19T19:06:32;9.18;;;7.32;;
18592;SDS011;9426;54.118;17.948;2022-08-19T19:11:59;11.60;;;7.88;;
18592;SDS011;9426;54.118;17.948;2022-08-19T19:17:25;11.30;;;7.95;;
18592;SDS011;9426;54.118;17.948;2022-08-19T19:22:48;12.65;;;8.10;;
18592;SDS011;9426;54.118;17.948;2022-08-19T19:28:11;15.82;;;9.10;;
18592;SDS011;9426;54.118;17.948;2022-08-19T19:33:36;12.38;;;8.18;;
18592;SDS011;9426;54.118;17.948;2022-08-19T19:38:59;11.05;;;6.72;;
18592;SDS011;9426;54.118;17.948;2022-08-19T19:44:22;10.52;;;6.57;;
18592;SDS011;9426;54.118;17.948;2022-08-19T19:49:46;8.90;;;6.20;;
18592;SDS011;9426;54.118;17.948;2022-08-19T19:55:31;10.60;;;6.78;;
18592;SDS011;9426;54.118;17.948;2022-08-19T20:00:55;9.57;;;6.25;;
18592;SDS011;9426;54.118;17.948;2022-08-19T20:06:20;13.80;;;7.60;;
18592;SDS011;9426;54.118;17.948;2022-08-19T20:11:44;17.77;;;10.10;;
18592;SDS011;9426;54.118;17.948;2022-08-19T20:17:09;18.23;;;10.27;;
18592;SDS011;9426;54.118;17.948;2022-08-19T20:22:33;15.10;;;8.70;;
18592;SDS011;9426;54.118;17.948;2022-08-19T20:28:00;18.05;;;9.73;;
18592;SDS011;9426;54.118;17.948;2022-08-19T20:33:25;15.65;;;9.98;;
18592;SDS011;9426;54.118;17.948;2022-08-19T20:38:51;17.15;;;9.70;;
18592;SDS011;9426;54.118;17.948;2022-08-19T20:44:14;18.23;;;10.10;;
18592;SDS011;9426;54.118;17.948;2022-08-19T20:49:37;18.85;;;9.73;;
18592;SDS011;9426;54.118;17.948;2022-08-19T20:55:01;21.00;;;10.77;;
18592;SDS011;9426;54.118;17.948;2022-08-19T21:00:24;22.95;;;11.45;;
18592;SDS011;9426;54.118;17.948;2022-08-19T21:05:49;16.95;;;11.10;;
18592;SDS011;9426;54.118;17.948;2022-08-19T21:11:13;16.13;;;11.57;;
18592;SDS011;9426;54.118;17.948;2022-08-19T21:16:37;15.73;;;11.55;;
18592;SDS011;9426;54.118;17.948;2022-08-19T21:22:00;16.92;;;11.60;;
18592;SDS011;9426;54.118;17.948;2022-08-19T21:27:25;17.30;;;12.82;;
18592;SDS011;9426;54.118;17.948;2022-08-19T21:32:47;20.20;;;13.20;;
18592;SDS011;9426;54.118;17.948;2022-08-19T21:38:12;16.85;;;12.55;;
18592;SDS011;9426;54.118;17.948;2022-08-19T21:43:36;17.45;;;13.75;;
18592;SDS011;9426;54.118;17.948;2022-08-19T21:49:00;14.45;;;11.38;;
18592;SDS011;9426;54.118;17.948;2022-08-19T21:54:23;14.63;;;12.38;;
18592;SDS011;9426;54.118;17.948;2022-08-19T21:59:47;17.95;;;13.38;;
18592;SDS011;9426;54.118;17.948;2022-08-19T22:05:13;18.85;;;14.13;;
18592;SDS011;9426;54.118;17.948;2022-08-19T22:10:37;18.80;;;14.10;;
18592;SDS011;9426;54.118;17.948;2022-08-19T22:16:01;15.35;;;12.68;;
18592;SDS011;9426;54.118;17.948;2022-08-19T22:21:25;18.92;;;14.13;;
18592;SDS011;9426;54.118;17.948;2022-08-19T22:26:48;19.63;;;15.73;;
18592;SDS011;9426;54.118;17.948;2022-08-19T22:32:12;22.98;;;16.88;;
18592;SDS011;9426;54.118;17.948;2022-08-19T22:37:37;20.52;;;16.20;;
18592;SDS011;9426;54.118;17.948;2022-08-19T22:43:03;20.85;;;16.45;;
18592;SDS011;9426;54.118;17.948;2022-08-19T22:48:29;24.85;;;15.80;;
18592;SDS011;9426;54.118;17.948;2022-08-19T22:53:53;26.05;;;16.58;;
18592;SDS011;9426;54.118;17.948;2022-08-19T22:59:18;25.63;;;16.98;;
18592;SDS011;9426;54.118;17.948;2022-08-19T23:04:42;24.95;;;17.70;;
18592;SDS011;9426;54.118;17.948;2022-08-19T23:10:07;26.15;;;18.35;;
18592;SDS011;9426;54.118;17.948;2022-08-19T23:15:33;19.65;;;17.05;;
18592;SDS011;9426;54.118;17.948;2022-08-19T23:21:14;24.00;;;18.60;;
18592;SDS011;9426;54.118;17.948;2022-08-19T23:26:39;25.60;;;19.90;;
18592;SDS011;9426;54.118;17.948;2022-08-19T23:32:24;24.55;;;20.20;;
18592;SDS011;9426;54.118;17.948;2022-08-19T23:37:49;26.08;;;20.15;;
18592;SDS011;9426;54.118;17.948;2022-08-19T23:43:13;24.85;;;21.02;;
18592;SDS011;9426;54.118;17.948;2022-08-19T23:48:37;31.30;;;23.58;;
18592;SDS011;9426;54.118;17.948;2022-08-19T23:54:03;32.10;;;25.20;;
18592;SDS011;9426;54.118;17.948;2022-08-19T23:59:26;32.85;;;25.58;;
